Strona główna
METAR-TAF:

METAR-TAF

Lotnisko :

Harriman-and-West Airport

North Adams, Massachusetts, Stany Zjednoczone

Szerokość geograficzna: 42-41-50N, Długość geograficzna: 073-10-13W, wysokość: 199 m

Aktualna obserwacja pogody

Raport powstał 54 minut temu, godzina 08:52 UTC
Wiatr 15 kt od zachód w porywach dochodzący do 22 kt
Temperatura -4°C
Wilgotność 54%
Ciśnienie 1004 hPa
Widzialność: 16.1 km
Rozproszone chmury na wysokości 4200 ft
Zachmurzenie całkowite na wysokości 5000 ft

METAR: KAQW 280852Z AUTO 26015G22KT 10SM SCT042 OVC050 M04/M12 A2965 RMK AO2 PK WND 27028/0811 SLP049 T10441122 51000

czas: 04:46 (09:46 UTC)


TAF: brakujący

Obserwacja i prognoza pogody dla ponad 4000 lotnisk (raport METAR i TAF).

Dostępne stacje oznaczono żółtymi i czerwonymi punktami na mapie.

Najedź kursorem aby zobaczyć nazwę stacji.

Kliknij aby zobaczyć obserwacje i prognozy pogody.

Aby zmienić mapę: kliknij na zielony przycisk z czarnym krzyżykiem, aby powiększyć; na zielony przycisk z myślnikiem, aby pomniejszyć; na zielone strzałki, aby przejść do map sąsiednich.


METAR-TAF: